Airport View

Enter AWOS ICAO identifier for current METAR.

ex. KFNL

KPYM 080752Z AUTO 22003KT 10SM SCT075 OVC095 07/03 A2956 RMK AO2 SLP010 T00720028 $

8 Apr 2020 08:22

Frequency: 135.625

Phone: 508-746-8003

Other Area AWOS: KGHG - KTAN - KEWB - KFMH

TAF KFMH 080534Z 0806/0906 24005KT P6SM BKN150 FM080800 26003KT P6SM VCSH OVC050 FM081000 00000KT P6SM VCSH OVC030 FM081200 03003KT 6SM -RA BR OVC020 FM081300 03004KT P6SM VCSH OVC020 FM081700 03007KT P6SM OVC025 FM081900 03008KT P6SM BKN040 FM090100 06003KT P6SM BKN050